Jalma Topic — A8IQ6 — position and weather

sailwx.info

Track history (hours):
 
Tides and Currents Weather Stations Pressure Air Temp Water Temp Dewpoint Dewpoint Depression Visibility Wind Speed Wind Dir Waves Ship Positions

Jalma Topic

Last reported at 2017-May-23 03:31 UTC. Time now 2017-May-24 00:29 UTC.
Position N 44°35' E 037°55'.

Length 183 m; draft 8.9 m.

Type: Cargo ship. MMSI: 636012871.

Date/timePositionNaut miles runAvg speedWind from/ knotsBaromVisibWave heightAir tempDewpointWater temp
2017-May-23 03:31N 44°35' E 037°55'0 0.1
2017-May-23 03:28N 44°35' E 037°55'0 0.0
2017-May-23 02:58N 44°35' E 037°55'0 0.0
2017-May-23 02:28N 44°35' E 037°55'0 0.0
2017-May-23 01:55N 44°35' E 037°55'0 0.0
2017-May-23 01:28N 44°35' E 037°55'0 0.0
2017-May-23 00:58N 44°35' E 037°55'0 0.0
2017-May-23 00:28N 44°35' E 037°55'0 0.1
2017-May-22 23:58N 44°35' E 037°55'0 0.0
2017-May-22 23:28N 44°35' E 037°55'0 0.0
2017-May-22 22:58N 44°35' E 037°55'0 0.0
2017-May-22 22:28N 44°35' E 037°55'0 0.0
2017-May-22 21:58N 44°35' E 037°55'0 0.0
2017-May-22 21:28N 44°35' E 037°55'0 0.0
2017-May-22 20:58N 44°35' E 037°55'0 0.0
2017-May-22 20:28N 44°35' E 037°55'0 0.1
2017-May-22 19:58N 44°35' E 037°55'0 0.0
2017-May-22 19:28N 44°35' E 037°55'0 0.0
2017-May-22 18:58N 44°35' E 037°55'0 0.0
2017-May-22 18:25N 44°35' E 037°55'0 0.0
2017-May-22 17:58N 44°35' E 037°55'0 0.3
2017-May-22 17:30N 44°35' E 037°55'2 3.8
2017-May-22 17:00N 44°34' E 037°52'2 4.6
2017-May-22 16:30N 44°33' E 037°50'5 9.4
2017-May-22 16:00N 44°29' E 037°45'510.7
2017-May-22 15:30N 44°26' E 037°40'4 8.6
2017-May-22 15:00N 44°23' E 037°35'0 0.5
2017-May-22 14:01N 44°22' E 037°35'0 0.3
2017-May-22 13:23N 44°22' E 037°36'0 0.6
2017-May-22 12:52N 44°23' E 037°36'0 0.2
2017-May-22 12:31N 44°23' E 037°36'0 0.2
2017-May-22 12:01N 44°23' E 037°36'0 0.2
2017-May-22 11:30N 44°23' E 037°36'0 0.3
2017-May-22 11:00N 44°23' E 037°36'0 0.1
2017-May-22 10:30N 44°23' E 037°36'0 0.2
2017-May-22 10:00N 44°23' E 037°36'0 0.4
2017-May-22 09:30N 44°23' E 037°36'0 0.3
2017-May-22 09:00N 44°23' E 037°36'1 1.3
2017-May-22 08:30N 44°23' E 037°37'0 0.4
2017-May-22 08:00N 44°23' E 037°37'1 1.5
2017-May-22 07:31N 44°24' E 037°36'2 3.6
2017-May-22 07:00N 44°26' E 037°35'0 0.6
2017-May-22 06:30N 44°25' E 037°35'0 0.2
2017-May-22 06:01N 44°25' E 037°35'0 0.5
2017-May-22 05:30N 44°25' E 037°35'0 0.5
2017-May-22 05:01N 44°25' E 037°35'0 0.9
2017-May-22 04:30N 44°24' E 037°35'0 0.9
2017-May-22 04:00N 44°24' E 037°35'0 0.6
2017-May-22 03:30N 44°24' E 037°35'0 0.8
2017-May-22 02:57N 44°23' E 037°35'0 0.7
2017-May-22 02:30N 44°23' E 037°36'0 0.4
2017-May-22 02:00N 44°23' E 037°36'1 0.8
2017-May-22 01:09N 44°23' E 037°37'0 1.0
2017-May-22 01:00N 44°23' E 037°37'1 1.5
2017-May-22 00:30N 44°23' E 037°38'2 3.2
2017-May-21 23:59N 44°24' E 037°39'4 7.3
2017-May-21 23:30N 44°28' E 037°37'813.6
2017-May-21 22:56N 44°24' E 037°28'  
2017-May-15 13:59N 37°40' E 024°30'40512.8
2017-May-14 06:19N 36°18' E 016°13'613.7
2017-May-14 05:51N 36°18' E 016°05'513.5
2017-May-14 05:30N 36°18' E 015°59'713.4
2017-May-14 05:00N 36°18' E 015°51'913.3
2017-May-14 04:21N 36°19' E 015°40'1413.0
2017-May-14 03:16N 36°19' E 015°23'413.1
2017-May-14 02:58N 36°19' E 015°18'613.4
2017-May-14 02:29N 36°19' E 015°10'713.5
2017-May-14 01:59N 36°18' E 015°02'713.6
2017-May-14 01:30N 36°19' E 014°53'713.9
2017-May-14 01:00N 36°18' E 014°45'714.3
2017-May-14 00:30N 36°18' E 014°36'714.4
2017-May-14 00:00N 36°19' E 014°27'714.8
2017-May-13 23:30N 36°22' E 014°18'714.8
2017-May-13 23:00N 36°24' E 014°10'714.6
2017-May-13 22:30N 36°27' E 014°01'714.4
2017-May-13 22:00N 36°29' E 013°53'714.0
2017-May-13 21:30N 36°31' E 013°45'713.9
2017-May-13 21:00N 36°34' E 013°36'713.9
2017-May-13 20:30N 36°36' E 013°28'713.9
2017-May-13 20:00N 36°38' E 013°20'714.1
2017-May-13 19:30N 36°40' E 013°12'714.4
2017-May-13 19:00N 36°43' E 013°03'714.5
2017-May-13 18:30N 36°45' E 012°55'714.7
2017-May-13 18:01N 36°47' E 012°46'714.5
2017-May-13 17:31N 36°50' E 012°38'714.4
2017-May-13 17:00N 36°52' E 012°29'714.5
2017-May-13 16:30N 36°54' E 012°20'714.5
2017-May-13 16:00N 36°57' E 012°12'714.5
2017-May-13 15:30N 36°59' E 012°03'1214.2
2017-May-13 14:40N 37°05' E 011°50'7613.9
2017-May-13 09:14N 37°32' E 010°22'314.2
2017-May-13 09:00N 37°33' E 010°17'  
Track history (hours):
 
Tides and Currents Weather Stations Pressure Air Temp Water Temp Dewpoint Dewpoint Depression Visibility Wind Speed Wind Dir Waves Ship Positions

Jalma Topic

Last reported at 2017-May-23 03:31 UTC. Time now 2017-May-24 00:29 UTC.
Position N 44°35' E 037°55'.

Length 183 m; draft 8.9 m.

Type: Cargo ship. MMSI: 636012871.

Date/timePositionNaut miles runAvg speedWind from/ knotsBaromVisibWave heightAir tempDewpointWater temp
2017-May-23 03:31N 44°35' E 037°55'0 0.1
2017-May-23 03:28N 44°35' E 037°55'0 0.0
2017-May-23 02:58N 44°35' E 037°55'0 0.0
2017-May-23 02:28N 44°35' E 037°55'0 0.0
2017-May-23 01:55N 44°35' E 037°55'0 0.0
2017-May-23 01:28N 44°35' E 037°55'0 0.0
2017-May-23 00:58N 44°35' E 037°55'0 0.0
2017-May-23 00:28N 44°35' E 037°55'0 0.1
2017-May-22 23:58N 44°35' E 037°55'0 0.0
2017-May-22 23:28N 44°35' E 037°55'0 0.0
2017-May-22 22:58N 44°35' E 037°55'0 0.0
2017-May-22 22:28N 44°35' E 037°55'0 0.0
2017-May-22 21:58N 44°35' E 037°55'0 0.0
2017-May-22 21:28N 44°35' E 037°55'0 0.0
2017-May-22 20:58N 44°35' E 037°55'0 0.0
2017-May-22 20:28N 44°35' E 037°55'0 0.1
2017-May-22 19:58N 44°35' E 037°55'0 0.0
2017-May-22 19:28N 44°35' E 037°55'0 0.0
2017-May-22 18:58N 44°35' E 037°55'0 0.0
2017-May-22 18:25N 44°35' E 037°55'0 0.0
2017-May-22 17:58N 44°35' E 037°55'0 0.3
2017-May-22 17:30N 44°35' E 037°55'2 3.8
2017-May-22 17:00N 44°34' E 037°52'2 4.6
2017-May-22 16:30N 44°33' E 037°50'5 9.4
2017-May-22 16:00N 44°29' E 037°45'510.7
2017-May-22 15:30N 44°26' E 037°40'4 8.6
2017-May-22 15:00N 44°23' E 037°35'0 0.5
2017-May-22 14:01N 44°22' E 037°35'0 0.3
2017-May-22 13:23N 44°22' E 037°36'0 0.6
2017-May-22 12:52N 44°23' E 037°36'0 0.2
2017-May-22 12:31N 44°23' E 037°36'0 0.2
2017-May-22 12:01N 44°23' E 037°36'0 0.2
2017-May-22 11:30N 44°23' E 037°36'0 0.3
2017-May-22 11:00N 44°23' E 037°36'0 0.1
2017-May-22 10:30N 44°23' E 037°36'0 0.2
2017-May-22 10:00N 44°23' E 037°36'0 0.4
2017-May-22 09:30N 44°23' E 037°36'0 0.3
2017-May-22 09:00N 44°23' E 037°36'1 1.3
2017-May-22 08:30N 44°23' E 037°37'0 0.4
2017-May-22 08:00N 44°23' E 037°37'1 1.5
2017-May-22 07:31N 44°24' E 037°36'2 3.6
2017-May-22 07:00N 44°26' E 037°35'0 0.6
2017-May-22 06:30N 44°25' E 037°35'0 0.2
2017-May-22 06:01N 44°25' E 037°35'0 0.5
2017-May-22 05:30N 44°25' E 037°35'0 0.5
2017-May-22 05:01N 44°25' E 037°35'0 0.9
2017-May-22 04:30N 44°24' E 037°35'0 0.9
2017-May-22 04:00N 44°24' E 037°35'0 0.6
2017-May-22 03:30N 44°24' E 037°35'0 0.8
2017-May-22 02:57N 44°23' E 037°35'0 0.7
2017-May-22 02:30N 44°23' E 037°36'0 0.4
2017-May-22 02:00N 44°23' E 037°36'1 0.8
2017-May-22 01:09N 44°23' E 037°37'0 1.0
2017-May-22 01:00N 44°23' E 037°37'1 1.5
2017-May-22 00:30N 44°23' E 037°38'2 3.2
2017-May-21 23:59N 44°24' E 037°39'4 7.3
2017-May-21 23:30N 44°28' E 037°37'813.6
2017-May-21 22:56N 44°24' E 037°28'  
2017-May-15 13:59N 37°40' E 024°30'40512.8
2017-May-14 06:19N 36°18' E 016°13'613.7
2017-May-14 05:51N 36°18' E 016°05'513.5
2017-May-14 05:30N 36°18' E 015°59'713.4
2017-May-14 05:00N 36°18' E 015°51'913.3
2017-May-14 04:21N 36°19' E 015°40'1413.0
2017-May-14 03:16N 36°19' E 015°23'413.1
2017-May-14 02:58N 36°19' E 015°18'613.4
2017-May-14 02:29N 36°19' E 015°10'713.5
2017-May-14 01:59N 36°18' E 015°02'713.6
2017-May-14 01:30N 36°19' E 014°53'713.9
2017-May-14 01:00N 36°18' E 014°45'714.3
2017-May-14 00:30N 36°18' E 014°36'714.4
2017-May-14 00:00N 36°19' E 014°27'714.8
2017-May-13 23:30N 36°22' E 014°18'714.8
2017-May-13 23:00N 36°24' E 014°10'714.6
2017-May-13 22:30N 36°27' E 014°01'714.4
2017-May-13 22:00N 36°29' E 013°53'714.0
2017-May-13 21:30N 36°31' E 013°45'713.9
2017-May-13 21:00N 36°34' E 013°36'713.9
2017-May-13 20:30N 36°36' E 013°28'713.9
2017-May-13 20:00N 36°38' E 013°20'714.1
2017-May-13 19:30N 36°40' E 013°12'714.4
2017-May-13 19:00N 36°43' E 013°03'714.5
2017-May-13 18:30N 36°45' E 012°55'714.7
2017-May-13 18:01N 36°47' E 012°46'714.5
2017-May-13 17:31N 36°50' E 012°38'714.4
2017-May-13 17:00N 36°52' E 012°29'714.5
2017-May-13 16:30N 36°54' E 012°20'714.5
2017-May-13 16:00N 36°57' E 012°12'714.5
2017-May-13 15:30N 36°59' E 012°03'1214.2
2017-May-13 14:40N 37°05' E 011°50'7613.9
2017-May-13 09:14N 37°32' E 010°22'314.2
2017-May-13 09:00N 37°33' E 010°17'  

Dump ship's entire track history